Ana Sayfa
METAR-TAF:

METAR-TAF

Havaalanları :

Aklavik, Kuzeybatı Bölgeleri, Kanada

Enlem: 68-13N, Boylam: 135-00W, yükseklik: 7 m

Güncel hava durumu gözlemi

Rapor saat 19:00 UTC de 16 saat ve 34 dakika önce yapıldı.
Rüzgar güney/güneydoğudan 6 kt
Sıcaklık 7°C
Nem 76%
Basınç 1015 hPa
Görüş mesafesi: 24.1 km
1700 ft yükseklikte parçalı çok bulutlu

METAR: CYKD 261900Z 16006KT 15SM BKN017 07/03 A2997 RMK SC5 SSSAFT14UTC 0.0 LAST STFD OBS/NXT 271300Z SLP150

Saat: 05:34 (11:34 UTC)


TAF: eksik

4.000'den fazla havaalanı için hava durumu gözlemleri ve tahminleri (METAR ve TAF raporları).

Kullanılabilir istasyonlar harita üzerinde sarı ve kırmızı noktalarla gösterilir.

İstasyonun adını görmek için fareyi noktanın üzerinde gezdirin.

Sonrasında hava gözlem ve tahminlerini görmek için tıklayın.

Haritayı değiştirmek için: yaklaştırmak için siyah artı işaretli yeşil düğmeye ve uzaklaştırmak için de eksi işaretli düğmeye hızla tıklayın; bitişik haritalar için yeşil okları kullanın.


METAR-TAF: